Albemarle Island — C6LU3 — position and weather

sailwx.info

Track history (hours):
 
Tides and Currents Weather Stations Pressure Air Temp Water Temp Dewpoint Dewpoint Depression Visibility Wind Speed Wind Dir Waves Ship Positions

Albemarle Island

Last reported at 2016-May-29 18:33 UTC. Time now 2016-May-29 19:10 UTC.
Position N 09°41' W 079°49'.

Type: Cargo ship. MMSI: 308511000.

Date/timePositionNaut miles runAvg speedWind from/ knotsBaromVisibWave heightAir tempDewpointWater temp
2016-May-29 18:33N 09°41' W 079°49'1918.9
2016-May-29 17:33N 09°51' W 079°32'  
2016-May-27 05:34N 16°21' W 062°34'1818.2
2016-May-27 04:34N 16°27' W 062°16'1818.2
2016-May-27 03:34N 16°33' W 061°58'1817.9
2016-May-27 02:33N 16°41' W 061°42'1817.6
2016-May-27 01:34N 16°49' W 061°25'1817.5
2016-May-27 00:33N 16°58' W 061°10'  
2016-May-21 17:27N 36°48' W 026°44'1517.0
2016-May-21 16:34N 36°58' W 026°30'1717.2
2016-May-21 15:34N 37°10' W 026°14'1717.2
2016-May-21 14:34N 37°22' W 025°58'1717.3
2016-May-21 13:34N 37°34' W 025°43'1616.4
2016-May-21 12:34N 37°40' W 025°24'1717.1
2016-May-21 11:34N 37°45' W 025°03'1818.0
2016-May-21 10:34N 37°55' W 024°44'1818.4
2016-May-21 09:34N 38°06' W 024°26'1818.0
2016-May-21 08:33N 38°17' W 024°07'1817.5
2016-May-21 07:33N 38°28' W 023°49'2417.4
2016-May-21 06:09N 38°43' W 023°25'44516.7
2016-May-20 03:30N 43°10' W 015°33'2216.5
2016-May-20 02:11N 43°23' W 015°10'  
Track history (hours):
 
Tides and Currents Weather Stations Pressure Air Temp Water Temp Dewpoint Dewpoint Depression Visibility Wind Speed Wind Dir Waves Ship Positions

Albemarle Island

Last reported at 2016-May-29 18:33 UTC. Time now 2016-May-29 19:10 UTC.
Position N 09°41' W 079°49'.

Type: Cargo ship. MMSI: 308511000.

Date/timePositionNaut miles runAvg speedWind from/ knotsBaromVisibWave heightAir tempDewpointWater temp
2016-May-29 18:33N 09°41' W 079°49'1918.9
2016-May-29 17:33N 09°51' W 079°32'  
2016-May-27 05:34N 16°21' W 062°34'1818.2
2016-May-27 04:34N 16°27' W 062°16'1818.2
2016-May-27 03:34N 16°33' W 061°58'1817.9
2016-May-27 02:33N 16°41' W 061°42'1817.6
2016-May-27 01:34N 16°49' W 061°25'1817.5
2016-May-27 00:33N 16°58' W 061°10'  
2016-May-21 17:27N 36°48' W 026°44'1517.0
2016-May-21 16:34N 36°58' W 026°30'1717.2
2016-May-21 15:34N 37°10' W 026°14'1717.2
2016-May-21 14:34N 37°22' W 025°58'1717.3
2016-May-21 13:34N 37°34' W 025°43'1616.4
2016-May-21 12:34N 37°40' W 025°24'1717.1
2016-May-21 11:34N 37°45' W 025°03'1818.0
2016-May-21 10:34N 37°55' W 024°44'1818.4
2016-May-21 09:34N 38°06' W 024°26'1818.0
2016-May-21 08:33N 38°17' W 024°07'1817.5
2016-May-21 07:33N 38°28' W 023°49'2417.4
2016-May-21 06:09N 38°43' W 023°25'44516.7
2016-May-20 03:30N 43°10' W 015°33'2216.5
2016-May-20 02:11N 43°23' W 015°10'  

Dump ship's entire track history